• Join FlightAware (Why Join?)
  • Login
  • US Flag 
04:39AM EDT


 

Airport Tracker/Info


-or-


 

Live Flight TrackerFlight Track Log ✈ N1926A ✈ 27.08.2013 ✈ KBHM - KMGM

Flight Track Log - Related Links

Times and Time Zones

All times are in EDT time to prevent confusion due to time zone crossing. See the N1926A flight status page for this flight to view local times or setup timezone preferences in your user account.

Time Position Orientation Groundspeed Altitude Reporting Facility
EDT Latitude Longitude Course Direction KTS MPH feet Rate Location/Type
12:55PM 32.2967 -86.3683 95° East 160 184 1,500  Level Atlanta Center
12:56PM 32.2933 -86.3214 95° East 186 214 3,300 2,700 Climbing Atlanta Center
12:57PM 32.2864 -86.2475 96° East 214 246 6,200 2,280 Climbing Atlanta Center
12:58PM 32.2811 -86.1836 96° East 243 280 8,000 1,680 Climbing Atlanta Center
12:59PM 32.3039 -86.0786 76° East 304 350 10,000 1,860 Climbing Atlanta Center
01:00PM 32.3675 -86.0061 44° Northeast 328 377 12,200 2,160 Climbing Atlanta Center
01:01PM 32.4378 -85.9192 46° Northeast 324 373 14,400 1,980 Climbing Atlanta Center
01:02PM 32.5017 -85.8417 46° Northeast 324 373 16,200 1,560 Climbing Atlanta Center
01:03PM 32.5525 -85.7761 47° Northeast 336 387 17,500 1,440 Climbing Atlanta Center
01:04PM 32.6206 -85.6961 45° Northeast 341 392 19,000 1,260 Climbing Atlanta Center
01:05PM 32.6842 -85.6158 47° Northeast 339 390 20,100 1,080 Climbing Atlanta Center
01:07PM 32.6480 -85.6899 240° Southwest  Level Estimated
01:14PM 32.4666 -86.0592 240° Southwest  Level Estimated
01:15PM 32.4406 -86.1118 240° Southwest  Level Estimated
01:16PM 32.4146 -86.1645 240° Southwest  Level Estimated
01:17PM 32.3886 -86.2170 240° Southwest  Level Estimated
01:18PM 32.3625 -86.2696 240° Southwest  Level Estimated
01:19PM 32.3364 -86.3221 240° Southwest  Level Estimated
01:20PM 32.3103 -86.3746 240° Southwest  Level Estimated
01:21PM 32.3006 -86.3940 239° Southwest  Level Estimated
01:22PM 32.3006 -86.3940 239° Southwest  Level Estimated
01:23PM 32.3006 -86.3940 239° Southwest  Level Estimated
01:24PM 32.3006 -86.3940 239° Southwest  Level Estimated
01:25PM 32.3006 -86.3940 239° Southwest  Level Estimated
01:26PM 32.3006 -86.3940 239° Southwest  Level Estimated
01:27PM 32.3006 -86.3940 239° Southwest  Level Estimated
01:28PM 32.3006 -86.3940 239° Southwest  Level Estimated
01:29PM 32.3006 -86.3940 239° Southwest  Level Estimated
01:30PM 32.3006 -86.3940 239° Southwest  Level Estimated
01:31PM 32.3006 -86.3940 239° Southwest  Level Estimated
01:32PM 32.3006 -86.3940 239° Southwest  Level Estimated
01:33PM 32.3006 -86.3940 239° Southwest  Level Estimated
01:34PM 32.3006 -86.3940 239° Southwest  Level Estimated
01:35PM 32.3006 -86.3940 239° Southwest  Level Estimated